sensor_id;sensor_type;location;lat;lon;timestamp;P1;durP1;ratioP1;P2;durP2;ratioP2
3054;SDS011;1537;52.018;8.542;2023-10-13T00:00:43;25.90;;;22.17;;
3054;SDS011;1537;52.018;8.542;2023-10-13T00:04:09;29.57;;;23.40;;
3054;SDS011;1537;52.018;8.542;2023-10-13T00:07:33;26.50;;;23.70;;
3054;SDS011;1537;52.018;8.542;2023-10-13T00:10:58;27.70;;;23.17;;
3054;SDS011;1537;52.018;8.542;2023-10-13T00:14:22;29.77;;;22.40;;
3054;SDS011;1537;52.018;8.542;2023-10-13T00:17:54;29.37;;;23.37;;
3054;SDS011;1537;52.018;8.542;2023-10-13T00:21:20;26.70;;;23.80;;
3054;SDS011;1537;52.018;8.542;2023-10-13T00:24:53;23.10;;;20.70;;
3054;SDS011;1537;52.018;8.542;2023-10-13T00:28:26;28.17;;;24.70;;
3054;SDS011;1537;52.018;8.542;2023-10-13T00:31:58;30.47;;;23.63;;
3054;SDS011;1537;52.018;8.542;2023-10-13T00:35:22;24.93;;;22.23;;
3054;SDS011;1537;52.018;8.542;2023-10-13T00:38:50;28.87;;;22.20;;
3054;SDS011;1537;52.018;8.542;2023-10-13T00:42:14;31.10;;;23.47;;
3054;SDS011;1537;52.018;8.542;2023-10-13T00:45:43;27.70;;;23.13;;
3054;SDS011;1537;52.018;8.542;2023-10-13T00:49:10;28.40;;;23.03;;
3054;SDS011;1537;52.018;8.542;2023-10-13T00:52:37;25.60;;;20.50;;
3054;SDS011;1537;52.018;8.542;2023-10-13T00:56:03;24.20;;;20.67;;
3054;SDS011;1537;52.018;8.542;2023-10-13T00:59:29;26.53;;;21.30;;
3054;SDS011;1537;52.018;8.542;2023-10-13T01:03:00;27.13;;;22.47;;
3054;SDS011;1537;52.018;8.542;2023-10-13T01:06:29;26.93;;;21.17;;
3054;SDS011;1537;52.018;8.542;2023-10-13T01:09:52;26.90;;;20.13;;
3054;SDS011;1537;52.018;8.542;2023-10-13T01:13:17;24.90;;;21.37;;
3054;SDS011;1537;52.018;8.542;2023-10-13T01:16:42;26.50;;;20.57;;
3054;SDS011;1537;52.018;8.542;2023-10-13T01:20:08;33.90;;;21.87;;
3054;SDS011;1537;52.018;8.542;2023-10-13T01:23:36;21.43;;;18.97;;
3054;SDS011;1537;52.018;8.542;2023-10-13T01:27:00;26.07;;;21.57;;
3054;SDS011;1537;52.018;8.542;2023-10-13T01:30:39;27.33;;;19.50;;
3054;SDS011;1537;52.018;8.542;2023-10-13T01:34:02;24.60;;;20.93;;
3054;SDS011;1537;52.018;8.542;2023-10-13T01:37:25;27.03;;;20.70;;
3054;SDS011;1537;52.018;8.542;2023-10-13T01:40:51;23.97;;;21.17;;
3054;SDS011;1537;52.018;8.542;2023-10-13T01:44:14;27.73;;;23.07;;
3054;SDS011;1537;52.018;8.542;2023-10-13T01:47:39;25.70;;;21.27;;
3054;SDS011;1537;52.018;8.542;2023-10-13T01:51:02;25.10;;;22.40;;
3054;SDS011;1537;52.018;8.542;2023-10-13T01:54:27;25.87;;;20.43;;
3054;SDS011;1537;52.018;8.542;2023-10-13T01:57:52;25.53;;;20.67;;
3054;SDS011;1537;52.018;8.542;2023-10-13T02:01:16;28.63;;;20.00;;
3054;SDS011;1537;52.018;8.542;2023-10-13T02:04:48;26.30;;;22.07;;
3054;SDS011;1537;52.018;8.542;2023-10-13T02:08:19;25.80;;;19.87;;
3054;SDS011;1537;52.018;8.542;2023-10-13T02:11:46;22.07;;;19.40;;
3054;SDS011;1537;52.018;8.542;2023-10-13T02:15:17;26.90;;;21.87;;
3054;SDS011;1537;52.018;8.542;2023-10-13T02:18:44;29.57;;;20.67;;
3054;SDS011;1537;52.018;8.542;2023-10-13T02:22:13;24.20;;;19.27;;
3054;SDS011;1537;52.018;8.542;2023-10-13T02:25:49;28.03;;;18.43;;
3054;SDS011;1537;52.018;8.542;2023-10-13T02:29:22;23.43;;;19.93;;
3054;SDS011;1537;52.018;8.542;2023-10-13T02:32:49;22.53;;;19.13;;
3054;SDS011;1537;52.018;8.542;2023-10-13T02:36:12;23.63;;;19.40;;
3054;SDS011;1537;52.018;8.542;2023-10-13T02:39:41;28.67;;;20.10;;
3054;SDS011;1537;52.018;8.542;2023-10-13T02:43:05;20.60;;;17.87;;
3054;SDS011;1537;52.018;8.542;2023-10-13T02:46:28;28.83;;;19.17;;
3054;SDS011;1537;52.018;8.542;2023-10-13T02:49:54;22.83;;;18.67;;
3054;SDS011;1537;52.018;8.542;2023-10-13T02:53:16;25.00;;;19.30;;
3054;SDS011;1537;52.018;8.542;2023-10-13T02:56:41;22.60;;;19.73;;
3054;SDS011;1537;52.018;8.542;2023-10-13T03:00:11;23.10;;;19.30;;
3054;SDS011;1537;52.018;8.542;2023-10-13T03:03:38;21.40;;;18.33;;
3054;SDS011;1537;52.018;8.542;2023-10-13T03:07:05;26.10;;;18.87;;
3054;SDS011;1537;52.018;8.542;2023-10-13T03:10:28;22.10;;;18.10;;
3054;SDS011;1537;52.018;8.542;2023-10-13T03:13:51;22.33;;;19.13;;
3054;SDS011;1537;52.018;8.542;2023-10-13T03:17:15;29.00;;;19.10;;
3054;SDS011;1537;52.018;8.542;2023-10-13T03:20:44;26.17;;;19.63;;
3054;SDS011;1537;52.018;8.542;2023-10-13T03:24:13;23.53;;;17.80;;
3054;SDS011;1537;52.018;8.542;2023-10-13T03:27:36;22.60;;;17.57;;
3054;SDS011;1537;52.018;8.542;2023-10-13T03:31:24;20.50;;;18.27;;
3054;SDS011;1537;52.018;8.542;2023-10-13T03:34:50;20.23;;;18.00;;
3054;SDS011;1537;52.018;8.542;2023-10-13T03:38:33;24.40;;;18.47;;
3054;SDS011;1537;52.018;8.542;2023-10-13T03:42:02;21.20;;;18.17;;
3054;SDS011;1537;52.018;8.542;2023-10-13T03:45:27;19.30;;;15.90;;
3054;SDS011;1537;52.018;8.542;2023-10-13T03:48:58;21.70;;;15.97;;
3054;SDS011;1537;52.018;8.542;2023-10-13T03:52:24;23.77;;;16.63;;
3054;SDS011;1537;52.018;8.542;2023-10-13T03:55:47;21.00;;;17.80;;
3054;SDS011;1537;52.018;8.542;2023-10-13T03:59:12;18.20;;;16.17;;
3054;SDS011;1537;52.018;8.542;2023-10-13T04:02:42;19.57;;;15.57;;
3054;SDS011;1537;52.018;8.542;2023-10-13T04:06:14;22.80;;;18.37;;
3054;SDS011;1537;52.018;8.542;2023-10-13T04:09:40;19.40;;;16.63;;
3054;SDS011;1537;52.018;8.542;2023-10-13T04:13:21;19.87;;;16.67;;
3054;SDS011;1537;52.018;8.542;2023-10-13T04:17:04;18.40;;;14.57;;
3054;SDS011;1537;52.018;8.542;2023-10-13T04:20:36;21.23;;;16.93;;
3054;SDS011;1537;52.018;8.542;2023-10-13T04:24:00;23.77;;;16.10;;
3054;SDS011;1537;52.018;8.542;2023-10-13T04:28:01;19.40;;;16.17;;
3054;SDS011;1537;52.018;8.542;2023-10-13T04:31:39;19.00;;;15.53;;
3054;SDS011;1537;52.018;8.542;2023-10-13T04:35:19;21.10;;;16.30;;
3054;SDS011;1537;52.018;8.542;2023-10-13T04:38:48;22.50;;;17.37;;
3054;SDS011;1537;52.018;8.542;2023-10-13T04:42:19;19.60;;;16.50;;
3054;SDS011;1537;52.018;8.542;2023-10-13T04:46:01;20.13;;;14.87;;
3054;SDS011;1537;52.018;8.542;2023-10-13T04:49:46;26.13;;;16.90;;
3054;SDS011;1537;52.018;8.542;2023-10-13T04:53:16;16.63;;;14.10;;
3054;SDS011;1537;52.018;8.542;2023-10-13T04:56:55;20.70;;;15.33;;
3054;SDS011;1537;52.018;8.542;2023-10-13T05:00:36;17.77;;;13.37;;
3054;SDS011;1537;52.018;8.542;2023-10-13T05:04:17;18.80;;;14.60;;
3054;SDS011;1537;52.018;8.542;2023-10-13T05:07:52;19.30;;;14.87;;
3054;SDS011;1537;52.018;8.542;2023-10-13T05:11:34;16.50;;;12.97;;
3054;SDS011;1537;52.018;8.542;2023-10-13T05:15:16;12.80;;;9.20;;
3054;SDS011;1537;52.018;8.542;2023-10-13T05:18:56;13.33;;;9.90;;
3054;SDS011;1537;52.018;8.542;2023-10-13T05:22:39;13.67;;;10.87;;
3054;SDS011;1537;52.018;8.542;2023-10-13T05:26:20;14.30;;;9.97;;
3054;SDS011;1537;52.018;8.542;2023-10-13T05:30:02;12.53;;;10.80;;
3054;SDS011;1537;52.018;8.542;2023-10-13T05:33:44;14.90;;;10.70;;
3054;SDS011;1537;52.018;8.542;2023-10-13T05:37:25;14.17;;;12.37;;
3054;SDS011;1537;52.018;8.542;2023-10-13T05:41:07;17.80;;;12.20;;
3054;SDS011;1537;52.018;8.542;2023-10-13T05:44:48;15.10;;;12.90;;
3054;SDS011;1537;52.018;8.542;2023-10-13T05:48:28;14.40;;;12.00;;
3054;SDS011;1537;52.018;8.542;2023-10-13T05:52:14;17.37;;;13.43;;
3054;SDS011;1537;52.018;8.542;2023-10-13T05:55:59;14.13;;;10.97;;
3054;SDS011;1537;52.018;8.542;2023-10-13T05:59:42;15.20;;;12.40;;
3054;SDS011;1537;52.018;8.542;2023-10-13T06:03:26;18.07;;;11.20;;
3054;SDS011;1537;52.018;8.542;2023-10-13T06:07:08;15.40;;;13.37;;
3054;SDS011;1537;52.018;8.542;2023-10-13T06:10:49;13.93;;;10.57;;
3054;SDS011;1537;52.018;8.542;2023-10-13T06:14:30;13.37;;;10.63;;
3054;SDS011;1537;52.018;8.542;2023-10-13T06:18:11;14.23;;;10.40;;
3054;SDS011;1537;52.018;8.542;2023-10-13T06:21:53;16.97;;;11.07;;
3054;SDS011;1537;52.018;8.542;2023-10-13T06:25:34;15.80;;;9.67;;
3054;SDS011;1537;52.018;8.542;2023-10-13T06:29:15;13.20;;;10.70;;
3054;SDS011;1537;52.018;8.542;2023-10-13T06:32:42;16.50;;;9.73;;
3054;SDS011;1537;52.018;8.542;2023-10-13T06:36:08;14.13;;;11.23;;
3054;SDS011;1537;52.018;8.542;2023-10-13T06:39:33;16.23;;;10.10;;
3054;SDS011;1537;52.018;8.542;2023-10-13T06:42:59;13.90;;;9.50;;
3054;SDS011;1537;52.018;8.542;2023-10-13T06:46:35;14.83;;;10.13;;
3054;SDS011;1537;52.018;8.542;2023-10-13T06:49:59;12.87;;;9.00;;
3054;SDS011;1537;52.018;8.542;2023-10-13T06:53:24;12.30;;;10.83;;
3054;SDS011;1537;52.018;8.542;2023-10-13T06:56:53;17.00;;;10.23;;
3054;SDS011;1537;52.018;8.542;2023-10-13T07:00:16;11.27;;;8.53;;
3054;SDS011;1537;52.018;8.542;2023-10-13T07:03:49;13.70;;;9.10;;
3054;SDS011;1537;52.018;8.542;2023-10-13T07:07:15;15.63;;;9.70;;
3054;SDS011;1537;52.018;8.542;2023-10-13T07:10:39;17.60;;;8.90;;
3054;SDS011;1537;52.018;8.542;2023-10-13T07:14:12;10.40;;;9.27;;
3054;SDS011;1537;52.018;8.542;2023-10-13T07:17:38;12.27;;;8.40;;
3054;SDS011;1537;52.018;8.542;2023-10-13T07:21:03;11.80;;;9.77;;
3054;SDS011;1537;52.018;8.542;2023-10-13T07:24:31;12.90;;;9.30;;
3054;SDS011;1537;52.018;8.542;2023-10-13T07:27:58;12.80;;;9.60;;
3054;SDS011;1537;52.018;8.542;2023-10-13T07:31:23;12.33;;;8.63;;
3054;SDS011;1537;52.018;8.542;2023-10-13T07:34:49;13.83;;;8.20;;
3054;SDS011;1537;52.018;8.542;2023-10-13T07:38:13;10.10;;;7.80;;
3054;SDS011;1537;52.018;8.542;2023-10-13T07:41:38;13.40;;;8.70;;
3054;SDS011;1537;52.018;8.542;2023-10-13T07:45:04;12.13;;;7.80;;
3054;SDS011;1537;52.018;8.542;2023-10-13T07:48:31;11.73;;;7.30;;
3054;SDS011;1537;52.018;8.542;2023-10-13T07:51:55;12.63;;;8.90;;
3054;SDS011;1537;52.018;8.542;2023-10-13T07:55:22;10.87;;;6.50;;
3054;SDS011;1537;52.018;8.542;2023-10-13T07:58:46;10.67;;;7.40;;
3054;SDS011;1537;52.018;8.542;2023-10-13T08:02:14;9.43;;;6.23;;
3054;SDS011;1537;52.018;8.542;2023-10-13T08:05:59;18.90;;;5.90;;
3054;SDS011;1537;52.018;8.542;2023-10-13T08:09:28;10.80;;;7.90;;
3054;SDS011;1537;52.018;8.542;2023-10-13T08:12:54;12.20;;;7.47;;
3054;SDS011;1537;52.018;8.542;2023-10-13T08:16:19;13.97;;;8.50;;
3054;SDS011;1537;52.018;8.542;2023-10-13T08:19:44;11.20;;;7.57;;
3054;SDS011;1537;52.018;8.542;2023-10-13T08:23:10;10.53;;;7.20;;
3054;SDS011;1537;52.018;8.542;2023-10-13T08:26:36;12.83;;;7.10;;
3054;SDS011;1537;52.018;8.542;2023-10-13T08:30:16;9.47;;;6.23;;
3054;SDS011;1537;52.018;8.542;2023-10-13T08:33:51;11.20;;;6.43;;
3054;SDS011;1537;52.018;8.542;2023-10-13T08:37:27;13.23;;;6.80;;
3054;SDS011;1537;52.018;8.542;2023-10-13T08:40:57;10.83;;;6.60;;
3054;SDS011;1537;52.018;8.542;2023-10-13T08:44:40;7.10;;;5.33;;
3054;SDS011;1537;52.018;8.542;2023-10-13T08:48:10;8.47;;;5.70;;
3054;SDS011;1537;52.018;8.542;2023-10-13T08:51:37;12.47;;;5.10;;
3054;SDS011;1537;52.018;8.542;2023-10-13T08:55:10;9.83;;;5.23;;
3054;SDS011;1537;52.018;8.542;2023-10-13T08:58:58;8.83;;;4.97;;
3054;SDS011;1537;52.018;8.542;2023-10-13T09:02:27;10.30;;;5.50;;
3054;SDS011;1537;52.018;8.542;2023-10-13T09:06:05;10.40;;;5.27;;
3054;SDS011;1537;52.018;8.542;2023-10-13T09:09:46;9.97;;;4.90;;
3054;SDS011;1537;52.018;8.542;2023-10-13T09:13:34;6.90;;;5.00;;
3054;SDS011;1537;52.018;8.542;2023-10-13T09:17:07;13.00;;;6.63;;
3054;SDS011;1537;52.018;8.542;2023-10-13T09:20:34;9.50;;;7.63;;
3054;SDS011;1537;52.018;8.542;2023-10-13T09:24:05;9.07;;;8.00;;
3054;SDS011;1537;52.018;8.542;2023-10-13T09:27:48;16.67;;;8.67;;
3054;SDS011;1537;52.018;8.542;2023-10-13T09:31:13;10.87;;;7.43;;
3054;SDS011;1537;52.018;8.542;2023-10-13T09:34:50;11.73;;;7.63;;
3054;SDS011;1537;52.018;8.542;2023-10-13T09:38:14;13.07;;;7.30;;
3054;SDS011;1537;52.018;8.542;2023-10-13T09:41:39;16.27;;;7.30;;
3054;SDS011;1537;52.018;8.542;2023-10-13T09:45:02;9.57;;;7.00;;
3054;SDS011;1537;52.018;8.542;2023-10-13T09:48:27;14.10;;;7.03;;
3054;SDS011;1537;52.018;8.542;2023-10-13T09:51:58;11.80;;;6.53;;
3054;SDS011;1537;52.018;8.542;2023-10-13T09:55:43;15.00;;;7.57;;
3054;SDS011;1537;52.018;8.542;2023-10-13T09:59:11;12.67;;;7.67;;
3054;SDS011;1537;52.018;8.542;2023-10-13T10:02:38;13.33;;;7.93;;
3054;SDS011;1537;52.018;8.542;2023-10-13T10:06:06;15.90;;;8.83;;
3054;SDS011;1537;52.018;8.542;2023-10-13T10:09:40;12.33;;;8.27;;
3054;SDS011;1537;52.018;8.542;2023-10-13T10:13:07;15.20;;;9.20;;
3054;SDS011;1537;52.018;8.542;2023-10-13T10:16:43;10.50;;;8.30;;
3054;SDS011;1537;52.018;8.542;2023-10-13T10:20:28;16.17;;;8.57;;
3054;SDS011;1537;52.018;8.542;2023-10-13T10:24:01;15.30;;;9.57;;
3054;SDS011;1537;52.018;8.542;2023-10-13T10:27:37;14.57;;;9.70;;
3054;SDS011;1537;52.018;8.542;2023-10-13T10:31:04;13.93;;;9.90;;
3054;SDS011;1537;52.018;8.542;2023-10-13T10:34:31;12.57;;;8.53;;
3054;SDS011;1537;52.018;8.542;2023-10-13T10:37:56;12.60;;;8.63;;
3054;SDS011;1537;52.018;8.542;2023-10-13T10:41:25;14.17;;;8.33;;
3054;SDS011;1537;52.018;8.542;2023-10-13T10:45:09;16.70;;;9.93;;
3054;SDS011;1537;52.018;8.542;2023-10-13T10:48:33;16.20;;;10.40;;
3054;SDS011;1537;52.018;8.542;2023-10-13T10:52:00;17.43;;;10.00;;
3054;SDS011;1537;52.018;8.542;2023-10-13T10:55:26;14.77;;;9.93;;
3054;SDS011;1537;52.018;8.542;2023-10-13T10:58:53;14.83;;;9.20;;
3054;SDS011;1537;52.018;8.542;2023-10-13T11:02:30;13.27;;;9.33;;
3054;SDS011;1537;52.018;8.542;2023-10-13T11:05:54;17.40;;;10.90;;
3054;SDS011;1537;52.018;8.542;2023-10-13T11:09:23;20.20;;;10.87;;
3054;SDS011;1537;52.018;8.542;2023-10-13T11:12:59;14.70;;;9.03;;
3054;SDS011;1537;52.018;8.542;2023-10-13T11:16:33;13.97;;;9.73;;
3054;SDS011;1537;52.018;8.542;2023-10-13T11:20:08;19.70;;;9.37;;
3054;SDS011;1537;52.018;8.542;2023-10-13T11:23:39;17.93;;;9.43;;
3054;SDS011;1537;52.018;8.542;2023-10-13T11:27:03;18.80;;;9.50;;
3054;SDS011;1537;52.018;8.542;2023-10-13T11:30:38;15.17;;;9.97;;
3054;SDS011;1537;52.018;8.542;2023-10-13T11:34:09;19.73;;;9.93;;
3054;SDS011;1537;52.018;8.542;2023-10-13T11:37:39;13.03;;;9.60;;
3054;SDS011;1537;52.018;8.542;2023-10-13T11:41:05;24.37;;;10.60;;
3054;SDS011;1537;52.018;8.542;2023-10-13T11:44:34;16.50;;;8.40;;
3054;SDS011;1537;52.018;8.542;2023-10-13T11:48:05;15.63;;;9.77;;
3054;SDS011;1537;52.018;8.542;2023-10-13T11:51:35;11.23;;;8.80;;
3054;SDS011;1537;52.018;8.542;2023-10-13T11:55:01;13.17;;;8.60;;
3054;SDS011;1537;52.018;8.542;2023-10-13T11:58:26;14.30;;;10.00;;
3054;SDS011;1537;52.018;8.542;2023-10-13T12:01:51;14.97;;;9.60;;
3054;SDS011;1537;52.018;8.542;2023-10-13T12:05:33;14.00;;;9.30;;
3054;SDS011;1537;52.018;8.542;2023-10-13T12:09:11;11.37;;;10.10;;
3054;SDS011;1537;52.018;8.542;2023-10-13T12:12:55;12.27;;;9.77;;
3054;SDS011;1537;52.018;8.542;2023-10-13T12:16:20;17.83;;;9.30;;
3054;SDS011;1537;52.018;8.542;2023-10-13T12:19:44;16.73;;;9.63;;
3054;SDS011;1537;52.018;8.542;2023-10-13T12:23:13;15.93;;;9.87;;
3054;SDS011;1537;52.018;8.542;2023-10-13T12:26:42;18.70;;;9.97;;
3054;SDS011;1537;52.018;8.542;2023-10-13T12:30:08;13.37;;;9.43;;
3054;SDS011;1537;52.018;8.542;2023-10-13T12:33:35;19.27;;;10.23;;
3054;SDS011;1537;52.018;8.542;2023-10-13T12:37:02;15.13;;;9.47;;
3054;SDS011;1537;52.018;8.542;2023-10-13T12:40:47;16.43;;;10.70;;
3054;SDS011;1537;52.018;8.542;2023-10-13T12:44:42;20.90;;;11.20;;
3054;SDS011;1537;52.018;8.542;2023-10-13T12:48:23;20.90;;;11.63;;
3054;SDS011;1537;52.018;8.542;2023-10-13T12:52:04;19.73;;;10.90;;
3054;SDS011;1537;52.018;8.542;2023-10-13T12:55:39;24.43;;;10.77;;
3054;SDS011;1537;52.018;8.542;2023-10-13T12:59:03;18.93;;;10.27;;
3054;SDS011;1537;52.018;8.542;2023-10-13T13:02:31;15.63;;;10.60;;
3054;SDS011;1537;52.018;8.542;2023-10-13T13:05:57;16.07;;;10.60;;
3054;SDS011;1537;52.018;8.542;2023-10-13T13:09:25;13.67;;;9.20;;
3054;SDS011;1537;52.018;8.542;2023-10-13T13:12:49;20.53;;;11.90;;
3054;SDS011;1537;52.018;8.542;2023-10-13T13:16:12;19.37;;;11.10;;
3054;SDS011;1537;52.018;8.542;2023-10-13T13:19:36;22.00;;;10.83;;
3054;SDS011;1537;52.018;8.542;2023-10-13T13:23:03;16.13;;;9.33;;
3054;SDS011;1537;52.018;8.542;2023-10-13T13:26:27;20.60;;;10.30;;
3054;SDS011;1537;52.018;8.542;2023-10-13T13:29:56;15.70;;;9.70;;
3054;SDS011;1537;52.018;8.542;2023-10-13T13:33:19;18.77;;;10.37;;
3054;SDS011;1537;52.018;8.542;2023-10-13T13:36:46;15.73;;;10.10;;
3054;SDS011;1537;52.018;8.542;2023-10-13T13:40:15;14.40;;;10.47;;
3054;SDS011;1537;52.018;8.542;2023-10-13T13:43:44;15.50;;;9.80;;
3054;SDS011;1537;52.018;8.542;2023-10-13T13:47:17;18.80;;;10.00;;
3054;SDS011;1537;52.018;8.542;2023-10-13T13:50:41;17.03;;;10.50;;
3054;SDS011;1537;52.018;8.542;2023-10-13T13:54:06;14.13;;;10.27;;
3054;SDS011;1537;52.018;8.542;2023-10-13T13:57:31;21.10;;;10.20;;
3054;SDS011;1537;52.018;8.542;2023-10-13T14:00:59;13.57;;;9.97;;
3054;SDS011;1537;52.018;8.542;2023-10-13T14:04:33;14.90;;;10.63;;
3054;SDS011;1537;52.018;8.542;2023-10-13T14:07:57;14.47;;;10.80;;
3054;SDS011;1537;52.018;8.542;2023-10-13T14:11:21;15.27;;;10.87;;
3054;SDS011;1537;52.018;8.542;2023-10-13T14:15:01;17.47;;;11.70;;
3054;SDS011;1537;52.018;8.542;2023-10-13T14:18:25;21.23;;;12.10;;
3054;SDS011;1537;52.018;8.542;2023-10-13T14:21:52;18.83;;;10.63;;
3054;SDS011;1537;52.018;8.542;2023-10-13T14:25:16;17.37;;;11.97;;
3054;SDS011;1537;52.018;8.542;2023-10-13T14:28:40;14.53;;;10.90;;
3054;SDS011;1537;52.018;8.542;2023-10-13T14:32:15;16.73;;;10.53;;
3054;SDS011;1537;52.018;8.542;2023-10-13T14:35:38;20.53;;;10.50;;
3054;SDS011;1537;52.018;8.542;2023-10-13T14:39:02;24.97;;;10.77;;
3054;SDS011;1537;52.018;8.542;2023-10-13T14:42:31;15.77;;;10.27;;
3054;SDS011;1537;52.018;8.542;2023-10-13T14:45:57;15.20;;;9.93;;
3054;SDS011;1537;52.018;8.542;2023-10-13T14:49:24;15.90;;;10.20;;
3054;SDS011;1537;52.018;8.542;2023-10-13T14:52:48;13.97;;;9.83;;
3054;SDS011;1537;52.018;8.542;2023-10-13T14:56:14;15.37;;;10.83;;
3054;SDS011;1537;52.018;8.542;2023-10-13T14:59:39;17.10;;;10.53;;
3054;SDS011;1537;52.018;8.542;2023-10-13T15:03:02;15.07;;;11.30;;
3054;SDS011;1537;52.018;8.542;2023-10-13T15:06:29;15.10;;;10.07;;
3054;SDS011;1537;52.018;8.542;2023-10-13T15:09:54;17.50;;;10.20;;
3054;SDS011;1537;52.018;8.542;2023-10-13T15:13:19;18.57;;;10.70;;
3054;SDS011;1537;52.018;8.542;2023-10-13T15:16:44;21.53;;;12.33;;
3054;SDS011;1537;52.018;8.542;2023-10-13T15:20:08;16.57;;;11.70;;
3054;SDS011;1537;52.018;8.542;2023-10-13T15:23:39;18.13;;;12.03;;
3054;SDS011;1537;52.018;8.542;2023-10-13T15:27:05;21.37;;;11.57;;
3054;SDS011;1537;52.018;8.542;2023-10-13T15:30:30;22.07;;;10.80;;
3054;SDS011;1537;52.018;8.542;2023-10-13T15:34:11;24.73;;;10.67;;
3054;SDS011;1537;52.018;8.542;2023-10-13T15:37:35;19.30;;;10.77;;
3054;SDS011;1537;52.018;8.542;2023-10-13T15:41:00;16.97;;;10.80;;
3054;SDS011;1537;52.018;8.542;2023-10-13T15:44:26;22.13;;;10.93;;
3054;SDS011;1537;52.018;8.542;2023-10-13T15:47:52;15.43;;;10.47;;
3054;SDS011;1537;52.018;8.542;2023-10-13T15:51:19;16.40;;;9.90;;
3054;SDS011;1537;52.018;8.542;2023-10-13T15:54:42;15.90;;;11.37;;
3054;SDS011;1537;52.018;8.542;2023-10-13T15:58:07;18.20;;;11.10;;
3054;SDS011;1537;52.018;8.542;2023-10-13T16:01:31;15.23;;;10.53;;
3054;SDS011;1537;52.018;8.542;2023-10-13T16:04:56;18.07;;;10.63;;
3054;SDS011;1537;52.018;8.542;2023-10-13T16:08:21;12.57;;;10.47;;
3054;SDS011;1537;52.018;8.542;2023-10-13T16:11:45;30.93;;;12.30;;
3054;SDS011;1537;52.018;8.542;2023-10-13T16:15:11;18.10;;;11.13;;
3054;SDS011;1537;52.018;8.542;2023-10-13T16:18:36;18.57;;;10.40;;
3054;SDS011;1537;52.018;8.542;2023-10-13T16:22:00;20.40;;;10.03;;
3054;SDS011;1537;52.018;8.542;2023-10-13T16:25:24;16.70;;;10.33;;
3054;SDS011;1537;52.018;8.542;2023-10-13T16:28:48;22.60;;;10.77;;
3054;SDS011;1537;52.018;8.542;2023-10-13T16:32:17;21.10;;;10.50;;
3054;SDS011;1537;52.018;8.542;2023-10-13T16:35:42;19.67;;;10.97;;
3054;SDS011;1537;52.018;8.542;2023-10-13T16:39:09;18.67;;;11.93;;
3054;SDS011;1537;52.018;8.542;2023-10-13T16:42:33;22.13;;;11.23;;
3054;SDS011;1537;52.018;8.542;2023-10-13T16:45:59;26.17;;;11.13;;
3054;SDS011;1537;52.018;8.542;2023-10-13T16:49:24;15.80;;;10.57;;
3054;SDS011;1537;52.018;8.542;2023-10-13T16:52:48;15.63;;;9.50;;
3054;SDS011;1537;52.018;8.542;2023-10-13T16:56:12;13.70;;;9.80;;
3054;SDS011;1537;52.018;8.542;2023-10-13T16:59:36;16.90;;;10.20;;
3054;SDS011;1537;52.018;8.542;2023-10-13T17:03:02;15.27;;;10.97;;
3054;SDS011;1537;52.018;8.542;2023-10-13T17:06:31;15.53;;;10.30;;
3054;SDS011;1537;52.018;8.542;2023-10-13T17:09:57;13.20;;;9.73;;
3054;SDS011;1537;52.018;8.542;2023-10-13T17:13:24;19.27;;;11.20;;
3054;SDS011;1537;52.018;8.542;2023-10-13T17:16:51;21.13;;;10.10;;
3054;SDS011;1537;52.018;8.542;2023-10-13T17:20:15;15.20;;;10.17;;
3054;SDS011;1537;52.018;8.542;2023-10-13T17:23:41;14.87;;;10.63;;
3054;SDS011;1537;52.018;8.542;2023-10-13T17:27:04;19.27;;;10.40;;
3054;SDS011;1537;52.018;8.542;2023-10-13T17:30:29;14.77;;;9.87;;
3054;SDS011;1537;52.018;8.542;2023-10-13T17:33:59;18.03;;;10.00;;
3054;SDS011;1537;52.018;8.542;2023-10-13T17:37:27;18.93;;;10.87;;
3054;SDS011;1537;52.018;8.542;2023-10-13T17:40:57;15.87;;;9.67;;
3054;SDS011;1537;52.018;8.542;2023-10-13T17:44:23;14.53;;;10.30;;
3054;SDS011;1537;52.018;8.542;2023-10-13T17:47:48;19.87;;;10.67;;
3054;SDS011;1537;52.018;8.542;2023-10-13T17:51:11;21.83;;;10.77;;
3054;SDS011;1537;52.018;8.542;2023-10-13T17:54:36;14.80;;;10.50;;
3054;SDS011;1537;52.018;8.542;2023-10-13T17:58:01;15.40;;;10.30;;
3054;SDS011;1537;52.018;8.542;2023-10-13T18:01:27;17.13;;;10.20;;
3054;SDS011;1537;52.018;8.542;2023-10-13T18:04:54;19.50;;;11.20;;
3054;SDS011;1537;52.018;8.542;2023-10-13T18:08:17;19.13;;;10.40;;
3054;SDS011;1537;52.018;8.542;2023-10-13T18:11:42;18.87;;;10.87;;
3054;SDS011;1537;52.018;8.542;2023-10-13T18:15:09;13.20;;;10.90;;
3054;SDS011;1537;52.018;8.542;2023-10-13T18:18:35;19.17;;;10.83;;
3054;SDS011;1537;52.018;8.542;2023-10-13T18:22:00;18.03;;;10.20;;
3054;SDS011;1537;52.018;8.542;2023-10-13T18:25:25;16.23;;;10.10;;
3054;SDS011;1537;52.018;8.542;2023-10-13T18:28:51;14.07;;;11.30;;
3054;SDS011;1537;52.018;8.542;2023-10-13T18:32:18;13.57;;;8.67;;
3054;SDS011;1537;52.018;8.542;2023-10-13T18:35:42;13.90;;;10.67;;
3054;SDS011;1537;52.018;8.542;2023-10-13T18:39:07;15.83;;;10.63;;
3054;SDS011;1537;52.018;8.542;2023-10-13T18:42:40;13.97;;;10.33;;
3054;SDS011;1537;52.018;8.542;2023-10-13T18:46:10;15.30;;;10.60;;
3054;SDS011;1537;52.018;8.542;2023-10-13T18:49:35;14.77;;;9.77;;
3054;SDS011;1537;52.018;8.542;2023-10-13T18:53:00;20.60;;;10.03;;
3054;SDS011;1537;52.018;8.542;2023-10-13T18:56:23;20.30;;;10.30;;
3054;SDS011;1537;52.018;8.542;2023-10-13T18:59:47;19.83;;;9.83;;
3054;SDS011;1537;52.018;8.542;2023-10-13T19:03:11;16.47;;;10.53;;
3054;SDS011;1537;52.018;8.542;2023-10-13T19:06:36;14.23;;;9.73;;
3054;SDS011;1537;52.018;8.542;2023-10-13T19:10:01;14.60;;;10.27;;
3054;SDS011;1537;52.018;8.542;2023-10-13T19:13:30;12.07;;;9.70;;
3054;SDS011;1537;52.018;8.542;2023-10-13T19:16:53;16.13;;;10.27;;
3054;SDS011;1537;52.018;8.542;2023-10-13T19:20:19;12.17;;;10.27;;
3054;SDS011;1537;52.018;8.542;2023-10-13T19:23:45;14.83;;;9.37;;
3054;SDS011;1537;52.018;8.542;2023-10-13T19:27:12;15.20;;;10.23;;
3054;SDS011;1537;52.018;8.542;2023-10-13T19:30:38;14.50;;;10.70;;
3054;SDS011;1537;52.018;8.542;2023-10-13T19:34:04;12.50;;;9.90;;
3054;SDS011;1537;52.018;8.542;2023-10-13T19:37:28;13.90;;;10.47;;
3054;SDS011;1537;52.018;8.542;2023-10-13T19:40:53;12.00;;;10.33;;
3054;SDS011;1537;52.018;8.542;2023-10-13T19:44:17;11.37;;;9.77;;
3054;SDS011;1537;52.018;8.542;2023-10-13T19:47:40;22.90;;;11.17;;
3054;SDS011;1537;52.018;8.542;2023-10-13T19:51:06;14.80;;;10.70;;
3054;SDS011;1537;52.018;8.542;2023-10-13T19:54:32;12.77;;;10.77;;
3054;SDS011;1537;52.018;8.542;2023-10-13T19:57:57;16.17;;;9.87;;
3054;SDS011;1537;52.018;8.542;2023-10-13T20:01:24;15.30;;;10.27;;
3054;SDS011;1537;52.018;8.542;2023-10-13T20:04:48;13.50;;;9.57;;
3054;SDS011;1537;52.018;8.542;2023-10-13T20:08:14;23.83;;;9.93;;
3054;SDS011;1537;52.018;8.542;2023-10-13T20:11:38;13.10;;;9.80;;
3054;SDS011;1537;52.018;8.542;2023-10-13T20:15:03;16.57;;;11.37;;
3054;SDS011;1537;52.018;8.542;2023-10-13T20:18:29;17.30;;;10.60;;
3054;SDS011;1537;52.018;8.542;2023-10-13T20:21:53;17.53;;;9.90;;
3054;SDS011;1537;52.018;8.542;2023-10-13T20:25:18;16.50;;;10.83;;
3054;SDS011;1537;52.018;8.542;2023-10-13T20:28:42;19.20;;;10.47;;
3054;SDS011;1537;52.018;8.542;2023-10-13T20:32:07;12.50;;;8.70;;
3054;SDS011;1537;52.018;8.542;2023-10-13T20:35:32;14.70;;;10.50;;
3054;SDS011;1537;52.018;8.542;2023-10-13T20:38:56;17.53;;;10.57;;
3054;SDS011;1537;52.018;8.542;2023-10-13T20:42:22;13.60;;;10.67;;
3054;SDS011;1537;52.018;8.542;2023-10-13T20:45:46;15.07;;;10.03;;
3054;SDS011;1537;52.018;8.542;2023-10-13T20:49:11;13.67;;;9.57;;
3054;SDS011;1537;52.018;8.542;2023-10-13T20:52:35;19.50;;;11.40;;
3054;SDS011;1537;52.018;8.542;2023-10-13T20:56:02;23.57;;;12.60;;
3054;SDS011;1537;52.018;8.542;2023-10-13T20:59:44;13.60;;;11.33;;
3054;SDS011;1537;52.018;8.542;2023-10-13T21:03:10;15.53;;;10.00;;
3054;SDS011;1537;52.018;8.542;2023-10-13T21:06:38;13.13;;;9.70;;